Buoy 21539

sailwx.info

Track history (hours):
 
Tides and Currents Weather Stations Pressure Air Temp Water Temp Dewpoint Dewpoint Depression Visibility Wind Speed Wind Dir Waves Ship Positions

Drifting buoy 21539

Last reported at 2014-Jul-31 04:10 UTC. Time now 2014-Jul-31 09:36 UTC.
Position N 51°60' E 170°28'.

Barometer 1004.6 mb
Water temperature 11.8 ° C

Date/timePositionNaut miles runAvg speedWind from/ knotsBaromVisibWave heightAir tempDewpointWater temp
2014-Jul-31 04:10N 51°60' E 170°28'0 0.0 1004.6 11.8
2014-Jul-31 03:10N 51°60' E 170°28'1 1.2 1004.7 11.8
2014-Jul-31 02:10N 51°59' E 170°26'0 0.2 1004.6 11.8
2014-Jul-31 01:10N 51°59' E 170°26'0 0.0 1004.5 11.8
2014-Jul-31 00:10N 51°59' E 170°26'2 0.3 1004.4 11.8
2014-Jul-30 18:10N 51°59' E 170°23'0 0.0 1003.2 11.6
2014-Jul-30 17:10N 51°59' E 170°23'1 0.7 1003.2 11.6
2014-Jul-30 16:10N 51°59' E 170°24'0 0.0 1003.1 11.6
2014-Jul-30 15:10N 51°59' E 170°24'3 0.5 1003.2 11.6
2014-Jul-30 10:10N 52°01' E 170°21'1 0.6 1003.7 11.6
2014-Jul-30 08:10N 52°02' E 170°19'3 2.6 1003.2 11.6
2014-Jul-30 07:10N 52°01' E 170°23'0 0.0 1002.8 11.6
2014-Jul-30 02:10N 52°01' E 170°23'4 4.3 1002.4 11.6
2014-Jul-30 01:10N 51°59' E 170°17'5 0.7 1002.5 11.6
2014-Jul-29 18:10N 52°01' E 170°10'1 0.8 1003.7 11.6
2014-Jul-29 17:10N 52°01' E 170°11'1 0.5 1003.9 11.6
2014-Jul-29 16:10N 52°01' E 170°10'0 0.0 1004.0 11.6
2014-Jul-29 15:10N 52°01' E 170°10'1 1.1 1003.9 11.6
2014-Jul-29 14:10N 51°60' E 170°11'0 0.0 1003.8 11.6
2014-Jul-29 12:10N 51°60' E 170°11'0 0.0 1004.1 11.6
2014-Jul-29 10:10N 51°60' E 170°11'1 0.5 1005.0 11.6
2014-Jul-29 09:10N 51°60' E 170°10'2 1.1 1005.1 11.6
2014-Jul-29 07:10N 52°01' E 170°07'2 0.8 1005.1 11.6
2014-Jul-29 05:10N 52°01' E 170°05'0 0.0 1005.7 11.6
2014-Jul-29 04:10N 52°01' E 170°05'0 0.0 1006.0 11.6
2014-Jul-29 03:10N 52°01' E 170°05'2 1.2 1006.5 11.6
2014-Jul-29 01:10N 51°58' E 170°04'0 0.0 1006.8 11.6
2014-Jul-29 00:10N 51°58' E 170°04'2 0.8 1007.1 11.6
2014-Jul-28 22:10N 51°60' E 170°04'2 0.3 1007.5 11.6
2014-Jul-28 15:10N 52°01' E 170°01'2 1.8 1007.8 11.6
2014-Jul-28 14:10N 51°59' E 169°59'0 0.0 1007.9 11.6
2014-Jul-28 11:10N 51°59' E 169°59'2 1.0 1008.2 11.6
2014-Jul-28 09:10N 51°58' E 169°56'0 0.0 1008.4 11.6
2014-Jul-28 08:10N 51°58' E 169°56'1 0.1 1008.2 11.6
2014-Jul-28 04:10N 51°59' E 169°56'0 0.0 1009.4 11.6
2014-Jul-28 03:10N 51°59' E 169°56'1 0.6 1010.0 11.6
2014-Jul-28 02:10N 51°58' E 169°57'0 0.0 1010.6 11.5
2014-Jul-28 01:10N 51°58' E 169°57'5 0.9 1010.8 11.5
2014-Jul-27 20:10N 51°55' E 169°51'0 0.3 1011.5 11.5
2014-Jul-27 19:10N 51°55' E 169°51'0 0.0 1011.2 11.5
2014-Jul-27 18:10N 51°55' E 169°51'1 0.4 1011.0 11.5
2014-Jul-27 16:10N 51°56' E 169°50'0 0.0 1010.8 11.5
2014-Jul-27 14:10N 51°56' E 169°50'0 0.1 1011.3 11.5
2014-Jul-27 09:10N 51°56' E 169°50'3 3.2 1013.5 11.6
2014-Jul-27 08:10N 51°54' E 169°46'0 0.0 1013.7 11.6
2014-Jul-27 06:10N 51°54' E 169°46'0 0.0 1014.0 11.6
2014-Jul-27 04:10N 51°54' E 169°46'1 0.5 1014.9 11.6
2014-Jul-27 02:10N 51°54' E 169°45'0 0.0 1015.9 11.6
2014-Jul-27 01:10N 51°54' E 169°45'0 0.0 1016.3 11.6
2014-Jul-27 00:10N 51°54' E 169°45'3 1.5 1016.6 11.6
2014-Jul-26 22:10N 51°52' E 169°45'2 0.4 1017.0 11.6
2014-Jul-26 17:10N 51°53' E 169°43'5 4.6 1017.9 11.6
2014-Jul-26 16:10N 51°49' E 169°39'0 0.0 1017.9 11.6
2014-Jul-26 15:10N 51°49' E 169°39'0 0.0 1017.9 11.6
2014-Jul-26 13:10N 51°49' E 169°39'2 0.4 1018.3 11.6
2014-Jul-26 08:10N 51°47' E 169°38'0 0.0 1019.1 11.6
2014-Jul-26 07:10N 51°47' E 169°38'0 0.0 1019.2 11.6
2014-Jul-26 06:10N 51°47' E 169°38'3 0.9 1019.3 11.6
2014-Jul-26 03:10N 51°46' E 169°34'0 0.0 1020.6 11.6
2014-Jul-26 01:10N 51°46' E 169°34'0 0.0 1021.1 11.6
2014-Jul-26 00:10N 51°46' E 169°34'3 1.1 1021.4 11.6
2014-Jul-25 21:10N 51°42' E 169°34'0 0.0 1022.4 11.6
2014-Jul-25 17:10N 51°42' E 169°34'0 0.0 1023.4 11.6
2014-Jul-25 16:10N 51°42' E 169°34'2 0.6 1024.0 11.6
2014-Jul-25 12:10N 51°41' E 169°30'1 0.5 1026.5 11.6
2014-Jul-25 10:10N 51°40' E 169°30'3 1.3 1027.6 11.6
2014-Jul-25 08:10N 51°38' E 169°29'1 0.5 1027.4 11.6
2014-Jul-25 05:10N 51°37' E 169°29'0 0.0 1028.1 11.7
2014-Jul-25 03:10N 51°37' E 169°29'0 0.0 1028.7 11.6
2014-Jul-25 02:10N 51°37' E 169°29'1 0.7 1029.2 11.6
2014-Jul-25 00:10N 51°36' E 169°27'2 0.5 1030.2 11.6
2014-Jul-24 19:10N 51°34' E 169°26'4 1.9 1030.8 11.6
2014-Jul-24 17:10N 51°30' E 169°26'0 0.0 1030.6 11.6
2014-Jul-24 16:10N 51°30' E 169°26'0 0.0 1030.9 11.6
2014-Jul-24 15:10N 51°30' E 169°26'0 0.0 1031.1 11.6
2014-Jul-24 13:10N 51°30' E 169°26'1 0.2 1031.5 11.6
2014-Jul-24 10:10N 51°29' E 169°26'0 0.0 1031.8 11.6
2014-Jul-24 09:10N 51°29' E 169°26'1 0.5 1031.3 11.6
2014-Jul-24 07:10N 51°29' E 169°25'1 0.5 1030.9 11.6
2014-Jul-24 04:10N 51°27' E 169°24'2 1.6 1030.6 11.6
2014-Jul-24 03:10N 51°26' E 169°22'2 1.9 1030.9 11.6
2014-Jul-24 02:10N 51°25' E 169°25'0 0.4 1030.8 11.6
2014-Jul-24 01:10N 51°25' E 169°24'1 1.3 1030.8 11.6
2014-Jul-24 00:10N 51°25' E 169°26'2 1.6 1030.8 11.6
2014-Jul-23 23:10N 51°23' E 169°25'1 0.4 1031.0 11.6
2014-Jul-23 21:10N 51°24' E 169°24'2 0.8 1030.9 11.5
2014-Jul-23 18:10N 51°21' E 169°25'0 0.0 1030.2 11.6
2014-Jul-23 17:10N 51°21' E 169°25'1 1.0 1029.9 11.6
2014-Jul-23 16:10N 51°21' E 169°24'4 3.5 1029.7 11.6
2014-Jul-23 15:10N 51°17' E 169°24'0 0.0 1029.8 11.6
2014-Jul-23 13:10N 51°17' E 169°24'0 0.0 1029.9 11.6
2014-Jul-23 12:10N 51°17' E 169°24'1 0.2 1030.0 11.6
2014-Jul-23 08:10N 51°16' E 169°24'0 0.0 1029.0 11.6
2014-Jul-23 07:10N 51°16' E 169°24'3 3.0 1028.9 11.6
2014-Jul-23 06:10N 51°13' E 169°25'0 0.0 1028.7 11.6
2014-Jul-23 05:10N 51°13' E 169°25'0 0.0 1028.7 11.7
2014-Jul-23 04:10N 51°13' E 169°25'0 0.0 1028.6 11.7
2014-Jul-23 02:10N 51°13' E 169°25'1 0.5 1028.9 11.6
2014-Jul-23 01:10N 51°14' E 169°25'2 1.7 1028.9 11.5
2014-Jul-23 00:10N 51°12' E 169°26'0 0.0 1028.6 11.4
2014-Jul-22 23:10N 51°12' E 169°26'4 0.6 1028.4 11.3
2014-Jul-22 16:10N 51°08' E 169°26'1 0.6 1026.2 11.2
2014-Jul-22 15:10N 51°08' E 169°27'2 1.2 1026.0 11.2
2014-Jul-22 13:10N 51°05' E 169°26'0 0.0 1026.0 11.2
2014-Jul-22 11:10N 51°05' E 169°26'1 1.5 1025.9 11.2
2014-Jul-22 10:10N 51°05' E 169°28'1 0.5 1025.8 11.3
2014-Jul-22 09:10N 51°05' E 169°28'2 0.5 1025.6 11.3
2014-Jul-22 06:10N 51°05' E 169°30'3 2.7 1024.7 11.3
2014-Jul-22 05:10N 51°03' E 169°27'0 0.0 1024.1 11.3
2014-Jul-22 04:10N 51°03' E 169°27'4 3.6 1023.7 11.3
2014-Jul-22 03:10N 51°01' E 169°32'0 0.0 1023.6 11.3
2014-Jul-22 02:10N 51°01' E 169°32'0 0.0 1023.6 11.3
2014-Jul-22 01:10N 51°01' E 169°32'3 0.5 1023.6 11.2
2014-Jul-21 20:10N 50°58' E 169°33'1 1.2 1022.9 11.0
2014-Jul-21 19:10N 50°57' E 169°33'0 0.0 1022.3 11.1
2014-Jul-21 18:10N 50°57' E 169°33'0 0.0 1022.2 11.0
2014-Jul-21 17:10N 50°57' E 169°33'0 0.0 1022.1 11.1
2014-Jul-21 16:10N 50°57' E 169°33'0 0.1 1021.9 11.1
2014-Jul-21 14:10N 50°57' E 169°33'3 0.8 1021.9 11.2
2014-Jul-21 10:10N 50°54' E 169°34'1 1.3 1021.5 11.2
2014-Jul-21 09:10N 50°53' E 169°36'2 2.2 1021.2 11.2
2014-Jul-21 08:10N 50°52' E 169°39'0 0.0 1020.9 11.2
2014-Jul-21 07:10N 50°52' E 169°39'2 0.6 1020.7 11.3
2014-Jul-21 04:10N 50°52' E 169°36'   1020.6 11.3
Track history (hours):
 
Tides and Currents Weather Stations Pressure Air Temp Water Temp Dewpoint Dewpoint Depression Visibility Wind Speed Wind Dir Waves Ship Positions

Drifting buoy 21539

Last reported at 2014-Jul-31 04:10 UTC. Time now 2014-Jul-31 09:36 UTC.
Position N 51°60' E 170°28'.

Barometer 1004.6 mb
Water temperature 11.8 ° C

Date/timePositionNaut miles runAvg speedWind from/ knotsBaromVisibWave heightAir tempDewpointWater temp
2014-Jul-31 04:10N 51°60' E 170°28'0 0.0 1004.6 11.8
2014-Jul-31 03:10N 51°60' E 170°28'1 1.2 1004.7 11.8
2014-Jul-31 02:10N 51°59' E 170°26'0 0.2 1004.6 11.8
2014-Jul-31 01:10N 51°59' E 170°26'0 0.0 1004.5 11.8
2014-Jul-31 00:10N 51°59' E 170°26'2 0.3 1004.4 11.8
2014-Jul-30 18:10N 51°59' E 170°23'0 0.0 1003.2 11.6
2014-Jul-30 17:10N 51°59' E 170°23'1 0.7 1003.2 11.6
2014-Jul-30 16:10N 51°59' E 170°24'0 0.0 1003.1 11.6
2014-Jul-30 15:10N 51°59' E 170°24'3 0.5 1003.2 11.6
2014-Jul-30 10:10N 52°01' E 170°21'1 0.6 1003.7 11.6
2014-Jul-30 08:10N 52°02' E 170°19'3 2.6 1003.2 11.6
2014-Jul-30 07:10N 52°01' E 170°23'0 0.0 1002.8 11.6
2014-Jul-30 02:10N 52°01' E 170°23'4 4.3 1002.4 11.6
2014-Jul-30 01:10N 51°59' E 170°17'5 0.7 1002.5 11.6
2014-Jul-29 18:10N 52°01' E 170°10'1 0.8 1003.7 11.6
2014-Jul-29 17:10N 52°01' E 170°11'1 0.5 1003.9 11.6
2014-Jul-29 16:10N 52°01' E 170°10'0 0.0 1004.0 11.6
2014-Jul-29 15:10N 52°01' E 170°10'1 1.1 1003.9 11.6
2014-Jul-29 14:10N 51°60' E 170°11'0 0.0 1003.8 11.6
2014-Jul-29 12:10N 51°60' E 170°11'0 0.0 1004.1 11.6
2014-Jul-29 10:10N 51°60' E 170°11'1 0.5 1005.0 11.6
2014-Jul-29 09:10N 51°60' E 170°10'2 1.1 1005.1 11.6
2014-Jul-29 07:10N 52°01' E 170°07'2 0.8 1005.1 11.6
2014-Jul-29 05:10N 52°01' E 170°05'0 0.0 1005.7 11.6
2014-Jul-29 04:10N 52°01' E 170°05'0 0.0 1006.0 11.6
2014-Jul-29 03:10N 52°01' E 170°05'2 1.2 1006.5 11.6
2014-Jul-29 01:10N 51°58' E 170°04'0 0.0 1006.8 11.6
2014-Jul-29 00:10N 51°58' E 170°04'2 0.8 1007.1 11.6
2014-Jul-28 22:10N 51°60' E 170°04'2 0.3 1007.5 11.6
2014-Jul-28 15:10N 52°01' E 170°01'2 1.8 1007.8 11.6
2014-Jul-28 14:10N 51°59' E 169°59'0 0.0 1007.9 11.6
2014-Jul-28 11:10N 51°59' E 169°59'2 1.0 1008.2 11.6
2014-Jul-28 09:10N 51°58' E 169°56'0 0.0 1008.4 11.6
2014-Jul-28 08:10N 51°58' E 169°56'1 0.1 1008.2 11.6
2014-Jul-28 04:10N 51°59' E 169°56'0 0.0 1009.4 11.6
2014-Jul-28 03:10N 51°59' E 169°56'1 0.6 1010.0 11.6
2014-Jul-28 02:10N 51°58' E 169°57'0 0.0 1010.6 11.5
2014-Jul-28 01:10N 51°58' E 169°57'5 0.9 1010.8 11.5
2014-Jul-27 20:10N 51°55' E 169°51'0 0.3 1011.5 11.5
2014-Jul-27 19:10N 51°55' E 169°51'0 0.0 1011.2 11.5
2014-Jul-27 18:10N 51°55' E 169°51'1 0.4 1011.0 11.5
2014-Jul-27 16:10N 51°56' E 169°50'0 0.0 1010.8 11.5
2014-Jul-27 14:10N 51°56' E 169°50'0 0.1 1011.3 11.5
2014-Jul-27 09:10N 51°56' E 169°50'3 3.2 1013.5 11.6
2014-Jul-27 08:10N 51°54' E 169°46'0 0.0 1013.7 11.6
2014-Jul-27 06:10N 51°54' E 169°46'0 0.0 1014.0 11.6
2014-Jul-27 04:10N 51°54' E 169°46'1 0.5 1014.9 11.6
2014-Jul-27 02:10N 51°54' E 169°45'0 0.0 1015.9 11.6
2014-Jul-27 01:10N 51°54' E 169°45'0 0.0 1016.3 11.6
2014-Jul-27 00:10N 51°54' E 169°45'3 1.5 1016.6 11.6
2014-Jul-26 22:10N 51°52' E 169°45'2 0.4 1017.0 11.6
2014-Jul-26 17:10N 51°53' E 169°43'5 4.6 1017.9 11.6
2014-Jul-26 16:10N 51°49' E 169°39'0 0.0 1017.9 11.6
2014-Jul-26 15:10N 51°49' E 169°39'0 0.0 1017.9 11.6
2014-Jul-26 13:10N 51°49' E 169°39'2 0.4 1018.3 11.6
2014-Jul-26 08:10N 51°47' E 169°38'0 0.0 1019.1 11.6
2014-Jul-26 07:10N 51°47' E 169°38'0 0.0 1019.2 11.6
2014-Jul-26 06:10N 51°47' E 169°38'3 0.9 1019.3 11.6
2014-Jul-26 03:10N 51°46' E 169°34'0 0.0 1020.6 11.6
2014-Jul-26 01:10N 51°46' E 169°34'0 0.0 1021.1 11.6
2014-Jul-26 00:10N 51°46' E 169°34'3 1.1 1021.4 11.6
2014-Jul-25 21:10N 51°42' E 169°34'0 0.0 1022.4 11.6
2014-Jul-25 17:10N 51°42' E 169°34'0 0.0 1023.4 11.6
2014-Jul-25 16:10N 51°42' E 169°34'2 0.6 1024.0 11.6
2014-Jul-25 12:10N 51°41' E 169°30'1 0.5 1026.5 11.6
2014-Jul-25 10:10N 51°40' E 169°30'3 1.3 1027.6 11.6
2014-Jul-25 08:10N 51°38' E 169°29'1 0.5 1027.4 11.6
2014-Jul-25 05:10N 51°37' E 169°29'0 0.0 1028.1 11.7
2014-Jul-25 03:10N 51°37' E 169°29'0 0.0 1028.7 11.6
2014-Jul-25 02:10N 51°37' E 169°29'1 0.7 1029.2 11.6
2014-Jul-25 00:10N 51°36' E 169°27'2 0.5 1030.2 11.6
2014-Jul-24 19:10N 51°34' E 169°26'4 1.9 1030.8 11.6
2014-Jul-24 17:10N 51°30' E 169°26'0 0.0 1030.6 11.6
2014-Jul-24 16:10N 51°30' E 169°26'0 0.0 1030.9 11.6
2014-Jul-24 15:10N 51°30' E 169°26'0 0.0 1031.1 11.6
2014-Jul-24 13:10N 51°30' E 169°26'1 0.2 1031.5 11.6
2014-Jul-24 10:10N 51°29' E 169°26'0 0.0 1031.8 11.6
2014-Jul-24 09:10N 51°29' E 169°26'1 0.5 1031.3 11.6
2014-Jul-24 07:10N 51°29' E 169°25'1 0.5 1030.9 11.6
2014-Jul-24 04:10N 51°27' E 169°24'2 1.6 1030.6 11.6
2014-Jul-24 03:10N 51°26' E 169°22'2 1.9 1030.9 11.6
2014-Jul-24 02:10N 51°25' E 169°25'0 0.4 1030.8 11.6
2014-Jul-24 01:10N 51°25' E 169°24'1 1.3 1030.8 11.6
2014-Jul-24 00:10N 51°25' E 169°26'2 1.6 1030.8 11.6
2014-Jul-23 23:10N 51°23' E 169°25'1 0.4 1031.0 11.6
2014-Jul-23 21:10N 51°24' E 169°24'2 0.8 1030.9 11.5
2014-Jul-23 18:10N 51°21' E 169°25'0 0.0 1030.2 11.6
2014-Jul-23 17:10N 51°21' E 169°25'1 1.0 1029.9 11.6
2014-Jul-23 16:10N 51°21' E 169°24'4 3.5 1029.7 11.6
2014-Jul-23 15:10N 51°17' E 169°24'0 0.0 1029.8 11.6
2014-Jul-23 13:10N 51°17' E 169°24'0 0.0 1029.9 11.6
2014-Jul-23 12:10N 51°17' E 169°24'1 0.2 1030.0 11.6
2014-Jul-23 08:10N 51°16' E 169°24'0 0.0 1029.0 11.6
2014-Jul-23 07:10N 51°16' E 169°24'3 3.0 1028.9 11.6
2014-Jul-23 06:10N 51°13' E 169°25'0 0.0 1028.7 11.6
2014-Jul-23 05:10N 51°13' E 169°25'0 0.0 1028.7 11.7
2014-Jul-23 04:10N 51°13' E 169°25'0 0.0 1028.6 11.7
2014-Jul-23 02:10N 51°13' E 169°25'1 0.5 1028.9 11.6
2014-Jul-23 01:10N 51°14' E 169°25'2 1.7 1028.9 11.5
2014-Jul-23 00:10N 51°12' E 169°26'0 0.0 1028.6 11.4
2014-Jul-22 23:10N 51°12' E 169°26'4 0.6 1028.4 11.3
2014-Jul-22 16:10N 51°08' E 169°26'1 0.6 1026.2 11.2
2014-Jul-22 15:10N 51°08' E 169°27'2 1.2 1026.0 11.2
2014-Jul-22 13:10N 51°05' E 169°26'0 0.0 1026.0 11.2
2014-Jul-22 11:10N 51°05' E 169°26'1 1.5 1025.9 11.2
2014-Jul-22 10:10N 51°05' E 169°28'1 0.5 1025.8 11.3
2014-Jul-22 09:10N 51°05' E 169°28'2 0.5 1025.6 11.3
2014-Jul-22 06:10N 51°05' E 169°30'3 2.7 1024.7 11.3
2014-Jul-22 05:10N 51°03' E 169°27'0 0.0 1024.1 11.3
2014-Jul-22 04:10N 51°03' E 169°27'4 3.6 1023.7 11.3
2014-Jul-22 03:10N 51°01' E 169°32'0 0.0 1023.6 11.3
2014-Jul-22 02:10N 51°01' E 169°32'0 0.0 1023.6 11.3
2014-Jul-22 01:10N 51°01' E 169°32'3 0.5 1023.6 11.2
2014-Jul-21 20:10N 50°58' E 169°33'1 1.2 1022.9 11.0
2014-Jul-21 19:10N 50°57' E 169°33'0 0.0 1022.3 11.1
2014-Jul-21 18:10N 50°57' E 169°33'0 0.0 1022.2 11.0
2014-Jul-21 17:10N 50°57' E 169°33'0 0.0 1022.1 11.1
2014-Jul-21 16:10N 50°57' E 169°33'0 0.1 1021.9 11.1
2014-Jul-21 14:10N 50°57' E 169°33'3 0.8 1021.9 11.2
2014-Jul-21 10:10N 50°54' E 169°34'1 1.3 1021.5 11.2
2014-Jul-21 09:10N 50°53' E 169°36'2 2.2 1021.2 11.2
2014-Jul-21 08:10N 50°52' E 169°39'0 0.0 1020.9 11.2
2014-Jul-21 07:10N 50°52' E 169°39'2 0.6 1020.7 11.3
2014-Jul-21 04:10N 50°52' E 169°36'   1020.6 11.3

Dump ship's entire track history